createdAt,value
2022-10-11T00:00:53.214Z,10.20
2022-10-11T00:03:33.598Z,9.30
2022-10-11T00:06:03.152Z,9.60
2022-10-11T00:08:35.297Z,8.80
2022-10-11T00:11:06.004Z,9.50
2022-10-11T00:13:33.791Z,9.40
2022-10-11T00:16:03.558Z,10.00
2022-10-11T00:18:33.364Z,9.60
2022-10-11T00:21:38.147Z,10.00
2022-10-11T00:24:07.271Z,8.30
2022-10-11T00:26:34.689Z,9.90
2022-10-11T00:29:01.725Z,10.00
2022-10-11T00:31:32.025Z,9.40
2022-10-11T00:34:03.027Z,8.50
2022-10-11T00:36:32.749Z,9.40
2022-10-11T00:38:59.402Z,9.50
2022-10-11T00:41:26.656Z,10.30
2022-10-11T00:44:15.426Z,9.80
2022-10-11T00:46:55.843Z,10.60
2022-10-11T00:49:53.824Z,10.50
2022-10-11T00:52:31.144Z,9.70
2022-10-11T00:55:04.514Z,10.60
2022-10-11T00:57:36.125Z,11.00
2022-10-11T01:00:07.750Z,10.60
2022-10-11T01:02:34.818Z,10.30
2022-10-11T01:05:25.646Z,9.80
2022-10-11T01:07:53.353Z,10.40
2022-10-11T01:10:21.281Z,9.40
2022-10-11T01:13:19.432Z,11.00
2022-10-11T01:15:55.924Z,11.10
2022-10-11T01:19:11.724Z,10.60
2022-10-11T01:21:57.108Z,11.00
2022-10-11T01:24:52.476Z,11.10
2022-10-11T01:27:46.756Z,10.80
2022-10-11T01:33:19.159Z,10.70
2022-10-11T01:36:29.742Z,10.10
2022-10-11T01:39:06.037Z,9.90
2022-10-11T01:41:40.254Z,10.20
2022-10-11T01:44:08.853Z,9.50
2022-10-11T01:46:36.424Z,9.30
2022-10-11T01:49:04.373Z,8.90
2022-10-11T01:51:46.356Z,8.10
2022-10-11T01:55:09.103Z,8.20
2022-10-11T01:57:53.038Z,7.40
2022-10-11T02:00:26.264Z,7.40
2022-10-11T02:03:28.515Z,7.50
2022-10-11T02:06:06.563Z,7.40
2022-10-11T02:08:49.342Z,7.70
2022-10-11T02:11:31.031Z,7.00
2022-10-11T02:14:20.020Z,6.90
2022-10-11T02:16:57.206Z,7.00
2022-10-11T02:19:33.571Z,7.40
2022-10-11T02:22:09.392Z,6.90
2022-10-11T02:24:41.528Z,5.90
2022-10-11T02:27:10.783Z,6.40
2022-10-11T02:29:44.544Z,5.90
2022-10-11T02:32:12.890Z,5.10
2022-10-11T02:35:01.793Z,5.20
2022-10-11T02:37:49.976Z,5.60
2022-10-11T02:40:25.396Z,5.50
2022-10-11T02:43:05.727Z,5.70
2022-10-11T02:45:39.008Z,5.40
2022-10-11T02:48:08.776Z,5.60
2022-10-11T02:50:36.681Z,4.80
2022-10-11T02:53:04.474Z,5.80
2022-10-11T02:55:33.094Z,5.00
2022-10-11T02:58:00.941Z,5.70
2022-10-11T03:00:28.587Z,5.30
2022-10-11T03:02:57.037Z,4.80
2022-10-11T03:05:23.878Z,5.60
2022-10-11T03:07:50.450Z,6.10
2022-10-11T03:10:17.816Z,5.70
2022-10-11T03:12:45.202Z,6.00
2022-10-11T03:15:14.291Z,5.70
2022-10-11T03:17:42.995Z,6.10
2022-10-11T03:20:09.864Z,5.70
2022-10-11T03:22:37.037Z,6.20
2022-10-11T03:25:05.052Z,6.20
2022-10-11T03:27:32.909Z,5.50
2022-10-11T03:30:00.265Z,6.50
2022-10-11T03:32:28.046Z,7.00
2022-10-11T03:34:57.198Z,6.60
2022-10-11T03:37:26.083Z,7.30
2022-10-11T03:39:55.538Z,7.00
2022-10-11T03:42:26.221Z,7.40
2022-10-11T03:44:53.033Z,7.30
2022-10-11T03:47:21.046Z,7.00
2022-10-11T03:49:48.786Z,6.90
2022-10-11T03:52:16.420Z,7.50
2022-10-11T03:54:44.188Z,7.60
2022-10-11T03:57:10.819Z,6.90
2022-10-11T03:59:37.863Z,6.20
2022-10-11T04:02:05.828Z,6.00
2022-10-11T04:04:35.018Z,5.50
2022-10-11T04:07:01.829Z,6.00
2022-10-11T04:09:29.430Z,5.60
2022-10-11T04:11:57.757Z,5.70
2022-10-11T04:14:27.363Z,6.20
2022-10-11T04:16:57.378Z,4.90
2022-10-11T04:19:27.081Z,5.10
2022-10-11T04:21:54.277Z,4.90
2022-10-11T04:24:21.964Z,5.00
2022-10-11T04:26:48.863Z,4.60
2022-10-11T04:29:17.076Z,5.50
2022-10-11T04:31:44.003Z,5.00
2022-10-11T04:34:10.735Z,5.10
2022-10-11T04:36:38.843Z,4.50
2022-10-11T04:39:08.816Z,4.70
2022-10-11T04:41:36.920Z,4.60
2022-10-11T04:44:09.773Z,4.90
2022-10-11T04:46:41.370Z,5.00
2022-10-11T04:49:10.300Z,5.10
2022-10-11T04:51:45.001Z,5.30
2022-10-11T04:54:12.134Z,5.00
2022-10-11T04:56:39.459Z,5.30
2022-10-11T04:59:07.061Z,5.40
2022-10-11T05:01:34.682Z,5.10
2022-10-11T05:04:02.153Z,5.80
2022-10-11T05:06:29.140Z,5.80
2022-10-11T05:09:01.833Z,6.70
2022-10-11T05:11:28.734Z,5.80
2022-10-11T05:13:56.488Z,5.80
2022-10-11T05:16:23.828Z,5.30
2022-10-11T05:18:50.943Z,5.40
2022-10-11T05:21:22.350Z,5.30
2022-10-11T05:23:57.939Z,5.90
2022-10-11T05:26:27.315Z,5.40
2022-10-11T05:28:56.621Z,5.10
2022-10-11T05:31:28.553Z,5.70
2022-10-11T05:33:56.500Z,6.70
2022-10-11T05:36:24.367Z,5.50
2022-10-11T05:38:52.696Z,6.30
2022-10-11T05:41:19.399Z,5.80
2022-10-11T05:43:48.175Z,6.30
2022-10-11T05:46:14.906Z,5.70
2022-10-11T05:48:42.075Z,5.90
2022-10-11T05:51:11.791Z,5.80
2022-10-11T05:53:40.467Z,4.80
2022-10-11T05:56:21.290Z,5.50
2022-10-11T05:58:50.067Z,4.90
2022-10-11T06:01:26.667Z,4.90
2022-10-11T06:03:55.321Z,4.90
2022-10-11T06:06:24.431Z,4.90
2022-10-11T06:08:51.230Z,5.10
2022-10-11T06:11:21.220Z,5.50
2022-10-11T06:13:48.193Z,5.10
2022-10-11T06:16:16.314Z,6.00
2022-10-11T06:18:43.921Z,5.80
2022-10-11T06:21:15.501Z,5.10
2022-10-11T06:23:42.645Z,5.00
2022-10-11T06:26:10.332Z,4.20
2022-10-11T06:28:37.961Z,4.60
2022-10-11T06:31:05.759Z,4.20
2022-10-11T06:33:33.521Z,4.20
2022-10-11T06:36:04.006Z,5.00
2022-10-11T06:38:30.783Z,3.80
2022-10-11T06:40:57.600Z,3.70
2022-10-11T06:43:24.875Z,5.00
2022-10-11T06:45:51.825Z,3.70
2022-10-11T06:48:20.807Z,3.90
2022-10-11T06:50:59.541Z,3.90
2022-10-11T06:53:28.517Z,3.30
2022-10-11T06:56:09.965Z,3.60
2022-10-11T06:58:39.605Z,3.60
2022-10-11T07:01:12.078Z,3.90
2022-10-11T07:03:39.344Z,3.70
2022-10-11T07:06:10.714Z,3.50
2022-10-11T07:08:45.019Z,4.70
2022-10-11T07:11:18.398Z,3.70
2022-10-11T07:13:57.655Z,3.40
2022-10-11T07:16:28.058Z,3.20
2022-10-11T07:19:00.454Z,3.10
2022-10-11T07:21:30.637Z,3.20
2022-10-11T07:23:57.898Z,3.00
2022-10-11T07:26:26.020Z,3.10
2022-10-11T07:28:52.657Z,3.30
2022-10-11T07:31:22.946Z,2.70
2022-10-11T07:33:49.884Z,3.10
2022-10-11T07:36:16.673Z,2.60
2022-10-11T07:38:45.271Z,2.90
2022-10-11T07:41:14.036Z,3.50
2022-10-11T07:43:47.538Z,2.70
2022-10-11T07:46:16.070Z,2.70
2022-10-11T07:48:58.564Z,3.10
2022-10-11T07:51:31.706Z,2.50
2022-10-11T07:53:59.760Z,3.10
2022-10-11T07:56:29.020Z,2.60
2022-10-11T07:59:02.934Z,2.80
2022-10-11T08:01:31.392Z,2.90
2022-10-11T08:03:58.575Z,3.10
2022-10-11T08:06:31.114Z,3.00
2022-10-11T08:09:18.049Z,3.30
2022-10-11T08:11:54.471Z,2.50
2022-10-11T08:14:21.788Z,2.50
2022-10-11T08:16:49.722Z,3.40
2022-10-11T08:19:18.213Z,2.50
2022-10-11T08:21:46.045Z,3.20
2022-10-11T08:24:13.506Z,2.80
2022-10-11T08:26:40.964Z,2.60
2022-10-11T08:29:09.137Z,2.30
2022-10-11T08:31:38.755Z,2.60
2022-10-11T08:34:05.386Z,2.20
2022-10-11T08:36:37.694Z,2.20
2022-10-11T08:39:07.874Z,2.90
2022-10-11T08:41:39.762Z,2.70
2022-10-11T08:45:05.546Z,2.10
2022-10-11T08:47:32.734Z,2.00
2022-10-11T08:50:00.208Z,1.10
2022-10-11T08:52:34.311Z,3.10
2022-10-11T08:57:53.462Z,2.30
2022-10-11T09:00:22.875Z,2.80
2022-10-11T09:03:10.208Z,2.70
2022-10-11T09:06:02.673Z,2.50
2022-10-11T09:08:45.787Z,2.20
2022-10-11T09:11:34.791Z,2.30
2022-10-11T09:14:12.303Z,2.40
2022-10-11T09:16:58.340Z,1.90
2022-10-11T09:19:32.274Z,1.50
2022-10-11T09:22:17.616Z,2.10
2022-10-11T09:25:25.416Z,1.90
2022-10-11T09:28:14.101Z,1.60
2022-10-11T09:30:47.804Z,2.20
2022-10-11T09:36:50.890Z,1.90
2022-10-11T09:39:36.687Z,2.20
2022-10-11T09:42:08.112Z,2.20
2022-10-11T09:44:50.181Z,3.90
2022-10-11T09:47:26.977Z,3.00
2022-10-11T09:50:16.952Z,3.20
2022-10-11T09:52:56.917Z,4.10
2022-10-11T09:55:34.409Z,2.40
2022-10-11T09:58:02.669Z,2.20
2022-10-11T10:00:36.248Z,2.90
2022-10-11T10:05:37.054Z,5.90
2022-10-11T10:08:23.092Z,4.20
2022-10-11T10:10:59.455Z,1.90
2022-10-11T10:13:50.751Z,1.40
2022-10-11T10:16:32.139Z,1.80
2022-10-11T10:19:24.986Z,3.10
2022-10-11T10:21:54.845Z,1.90
2022-10-11T10:24:32.605Z,2.10
2022-10-11T10:27:20.741Z,4.10
2022-10-11T10:30:12.782Z,1.60
2022-10-11T10:32:59.422Z,2.00
2022-10-11T10:35:44.079Z,1.90
2022-10-11T10:38:36.912Z,2.10
2022-10-11T10:41:12.839Z,2.60
2022-10-11T10:43:41.942Z,2.00
2022-10-11T10:46:42.897Z,2.00
2022-10-11T10:52:36.827Z,4.60
2022-10-11T10:55:20.822Z,2.80
2022-10-11T10:58:29.357Z,3.20
2022-10-11T11:01:29.565Z,4.50
2022-10-11T11:04:12.273Z,5.10
2022-10-11T11:07:03.834Z,2.50
2022-10-11T11:09:41.662Z,3.10
2022-10-11T11:12:23.176Z,1.70
2022-10-11T11:15:08.730Z,1.90
2022-10-11T11:18:02.963Z,1.70
2022-10-11T11:21:05.574Z,1.40
2022-10-11T11:24:10.594Z,1.70
2022-10-11T11:27:34.589Z,2.00
2022-10-11T11:30:11.448Z,2.60
2022-10-11T11:33:09.972Z,2.20
2022-10-11T11:35:41.793Z,1.90
2022-10-11T11:38:28.581Z,1.40
2022-10-11T11:41:04.800Z,2.30
2022-10-11T11:43:37.315Z,1.70
2022-10-11T11:46:14.692Z,2.20
2022-10-11T11:48:43.695Z,1.70
2022-10-11T11:51:34.775Z,1.80
2022-10-11T11:54:27.630Z,1.90
2022-10-11T11:57:12.597Z,3.40
2022-10-11T11:59:52.873Z,2.30
2022-10-11T12:02:41.377Z,2.00
2022-10-11T12:05:10.584Z,1.80
2022-10-11T12:08:00.640Z,2.00
2022-10-11T12:10:33.451Z,2.20
2022-10-11T12:13:21.086Z,2.30
2022-10-11T12:16:14.047Z,2.10
2022-10-11T12:19:12.213Z,2.70
2022-10-11T12:21:44.802Z,2.40
2022-10-11T12:24:22.740Z,1.90
2022-10-11T12:26:55.357Z,1.90
2022-10-11T12:29:46.659Z,4.40
2022-10-11T12:32:35.271Z,2.80
2022-10-11T12:35:39.603Z,3.10
2022-10-11T12:38:33.276Z,3.60
2022-10-11T12:41:15.032Z,2.60
2022-10-11T12:43:48.158Z,2.10
2022-10-11T12:46:49.986Z,2.80
2022-10-11T12:49:29.555Z,3.60
2022-10-11T12:52:27.278Z,4.40
2022-10-11T12:55:25.741Z,1.80
2022-10-11T12:58:42.141Z,1.80
2022-10-11T13:01:21.174Z,2.40
2022-10-11T13:04:10.331Z,2.60
2022-10-11T13:06:53.142Z,1.90
2022-10-11T13:09:32.305Z,2.00
2022-10-11T13:12:13.085Z,2.80
2022-10-11T13:14:46.731Z,1.70
2022-10-11T13:19:43.101Z,1.40
2022-10-11T13:22:20.839Z,2.40
2022-10-11T13:24:48.303Z,3.00
2022-10-11T13:27:25.973Z,1.90
2022-10-11T13:29:55.172Z,2.10
2022-10-11T13:32:31.483Z,2.30
2022-10-11T13:35:07.185Z,2.60
2022-10-11T13:37:52.433Z,1.80
2022-10-11T13:43:09.117Z,1.80
2022-10-11T13:45:38.684Z,1.80
2022-10-11T13:48:16.153Z,1.70
2022-10-11T13:50:59.388Z,2.10
2022-10-11T13:53:26.251Z,2.30
2022-10-11T13:55:59.291Z,1.60
2022-10-11T13:58:40.066Z,2.60
2022-10-11T14:01:25.268Z,1.90
2022-10-11T14:04:08.619Z,1.70
2022-10-11T14:06:45.670Z,1.90
2022-10-11T14:09:31.585Z,2.30
2022-10-11T14:12:34.881Z,3.50
2022-10-11T14:15:05.853Z,2.40
2022-10-11T14:17:39.080Z,2.50
2022-10-11T14:20:15.437Z,1.80
2022-10-11T14:22:44.097Z,1.70
2022-10-11T14:25:12.568Z,1.60
2022-10-11T14:27:44.140Z,2.00
2022-10-11T14:30:25.441Z,1.70
2022-10-11T14:32:56.249Z,2.60
2022-10-11T14:35:30.643Z,2.10
2022-10-11T14:37:57.456Z,2.60
2022-10-11T14:40:30.368Z,2.80
2022-10-11T14:42:59.422Z,1.90
2022-10-11T14:45:27.726Z,2.20
2022-10-11T14:47:57.372Z,2.00
2022-10-11T14:50:47.397Z,3.10
2022-10-11T14:53:14.672Z,2.20
2022-10-11T14:55:42.514Z,2.10
2022-10-11T14:58:11.067Z,2.50
2022-10-11T15:00:43.550Z,3.60
2022-10-11T15:03:11.129Z,3.20
2022-10-11T15:05:39.777Z,4.60
2022-10-11T15:08:06.829Z,3.60
2022-10-11T15:10:39.277Z,3.20
2022-10-11T15:13:10.318Z,3.30
2022-10-11T15:15:41.441Z,3.70
2022-10-11T15:18:17.076Z,3.60
2022-10-11T15:20:45.995Z,3.40
2022-10-11T15:23:13.200Z,3.90
2022-10-11T15:25:41.603Z,3.00
2022-10-11T15:28:21.246Z,4.10
2022-10-11T15:30:50.741Z,4.20
2022-10-11T15:33:21.478Z,3.50
2022-10-11T15:35:50.873Z,3.70
2022-10-11T15:38:23.830Z,3.50
2022-10-11T15:40:52.891Z,3.70
2022-10-11T15:43:24.712Z,4.10
2022-10-11T15:45:57.264Z,4.40
2022-10-11T15:48:25.998Z,5.10
2022-10-11T15:50:53.810Z,5.30
2022-10-11T15:53:28.265Z,5.80
2022-10-11T15:56:03.095Z,7.00
2022-10-11T15:58:35.139Z,8.00
2022-10-11T16:01:12.538Z,10.20
2022-10-11T16:03:39.358Z,8.90
2022-10-11T16:06:06.601Z,12.90
2022-10-11T16:08:36.399Z,14.00
2022-10-11T16:11:05.159Z,11.20
2022-10-11T16:13:33.306Z,12.40
2022-10-11T16:16:05.924Z,12.60
2022-10-11T16:18:36.740Z,13.60
2022-10-11T16:21:09.640Z,12.80
2022-10-11T16:23:40.588Z,11.60
2022-10-11T16:26:12.848Z,11.00
2022-10-11T16:28:39.695Z,14.10
2022-10-11T16:31:16.715Z,13.60
2022-10-11T16:33:47.699Z,21.10
2022-10-11T16:36:31.435Z,18.10
2022-10-11T16:38:59.754Z,14.60
2022-10-11T16:41:27.757Z,14.20
2022-10-11T16:43:55.221Z,14.30
2022-10-11T16:46:23.589Z,13.40
2022-10-11T16:48:53.434Z,13.80
2022-10-11T16:51:19.916Z,21.40
2022-10-11T16:53:48.000Z,23.80
2022-10-11T16:56:21.176Z,18.70
2022-10-11T16:58:51.498Z,16.00
2022-10-11T17:01:18.661Z,17.30
2022-10-11T17:03:45.601Z,15.60
2022-10-11T17:06:12.142Z,18.50
2022-10-11T17:08:39.008Z,20.60
2022-10-11T17:11:06.864Z,19.90
2022-10-11T17:13:33.541Z,20.40
2022-10-11T17:16:00.054Z,24.50
2022-10-11T17:18:30.944Z,35.90
2022-10-11T17:21:09.780Z,30.90
2022-10-11T17:24:04.517Z,29.10
2022-10-11T17:26:34.776Z,32.60
2022-10-11T17:29:03.391Z,35.40
2022-10-11T17:31:35.976Z,28.70
2022-10-11T17:34:05.990Z,28.80
2022-10-11T17:36:35.383Z,31.40
2022-10-11T17:39:07.191Z,35.20
2022-10-11T17:41:34.159Z,29.20
2022-10-11T17:44:06.149Z,27.20
2022-10-11T17:47:00.372Z,26.30
2022-10-11T17:49:36.388Z,28.40
2022-10-11T17:54:51.809Z,29.10
2022-10-11T17:57:19.296Z,28.80
2022-10-11T17:59:46.132Z,31.20
2022-10-11T18:02:14.192Z,30.70
2022-10-11T18:04:41.572Z,29.50
2022-10-11T18:07:09.144Z,35.30
2022-10-11T18:09:37.877Z,75.60
2022-10-11T18:12:06.298Z,58.70
2022-10-11T18:14:34.838Z,56.70
2022-10-11T18:17:02.516Z,64.30
2022-10-11T18:19:31.355Z,59.30
2022-10-11T18:22:03.207Z,58.50
2022-10-11T18:24:35.551Z,58.40
2022-10-11T18:27:06.377Z,57.50
2022-10-11T18:29:32.973Z,54.80
2022-10-11T18:31:59.474Z,53.40
2022-10-11T18:34:28.114Z,53.20
2022-10-11T18:36:55.235Z,54.10
2022-10-11T18:39:27.742Z,54.80
2022-10-11T18:41:56.469Z,51.90
2022-10-11T18:44:25.289Z,55.90
2022-10-11T18:46:53.750Z,54.90
2022-10-11T18:49:21.698Z,56.20
2022-10-11T18:51:48.943Z,51.00
2022-10-11T18:54:21.108Z,49.60
2022-10-11T18:56:50.537Z,44.30
2022-10-11T18:59:17.818Z,41.40
2022-10-11T19:03:12.446Z,35.50
2022-10-11T19:05:41.082Z,32.00
2022-10-11T19:08:09.763Z,29.10
2022-10-11T19:10:39.699Z,28.70
2022-10-11T19:13:09.672Z,26.80
2022-10-11T19:15:39.330Z,22.20
2022-10-11T19:18:07.647Z,19.10
2022-10-11T19:20:36.963Z,18.40
2022-10-11T19:23:07.880Z,21.00
2022-10-11T19:25:38.100Z,19.00
2022-10-11T19:28:06.071Z,20.10
2022-10-11T19:30:36.135Z,18.60
2022-10-11T19:33:05.711Z,17.40
2022-10-11T19:35:33.442Z,17.70
2022-10-11T19:38:01.697Z,21.50
2022-10-11T19:40:31.643Z,27.00
2022-10-11T19:43:07.102Z,30.00
2022-10-11T19:48:06.851Z,33.70
2022-10-11T19:50:37.185Z,25.80
2022-10-11T19:53:12.544Z,25.00
2022-10-11T19:55:46.361Z,20.70
2022-10-11T19:58:15.028Z,33.00
2022-10-11T20:00:43.049Z,31.70
2022-10-11T20:03:12.058Z,33.20
2022-10-11T20:05:41.091Z,29.00
2022-10-11T20:08:13.606Z,29.10
2022-10-11T20:10:49.108Z,24.70
2022-10-11T20:13:22.884Z,21.80
2022-10-11T20:15:57.633Z,23.20
2022-10-11T20:18:28.343Z,21.00
2022-10-11T20:21:21.912Z,21.10
2022-10-11T20:23:51.486Z,22.00
2022-10-11T20:26:22.746Z,22.00
2022-10-11T20:28:56.052Z,20.70
2022-10-11T20:31:27.942Z,21.40
2022-10-11T20:34:02.386Z,20.30
2022-10-11T20:36:32.208Z,20.30
2022-10-11T20:39:08.732Z,19.00
2022-10-11T20:41:43.708Z,18.80
2022-10-11T20:44:13.386Z,19.00
2022-10-11T20:46:42.902Z,19.50
2022-10-11T20:49:14.193Z,18.90
2022-10-11T20:51:44.115Z,16.40
2022-10-11T20:54:12.165Z,14.50
2022-10-11T20:56:42.296Z,14.70
2022-10-11T20:59:10.779Z,14.30
2022-10-11T21:01:41.098Z,13.70
2022-10-11T21:04:18.210Z,13.20
2022-10-11T21:06:48.394Z,10.90
2022-10-11T21:09:17.679Z,10.70
2022-10-11T21:11:46.332Z,11.40
2022-10-11T21:14:19.781Z,11.30
2022-10-11T21:16:47.845Z,11.50
2022-10-11T21:19:16.277Z,10.70
2022-10-11T21:21:51.160Z,11.30
2022-10-11T21:24:23.083Z,11.50
2022-10-11T21:26:59.599Z,12.40
2022-10-11T21:29:28.944Z,12.40
2022-10-11T21:31:57.343Z,11.10
2022-10-11T21:34:30.373Z,10.10
2022-10-11T21:37:00.669Z,10.50
2022-10-11T21:39:29.945Z,9.90
2022-10-11T21:41:58.524Z,10.00
2022-10-11T21:44:26.483Z,10.00
2022-10-11T21:47:11.760Z,9.50
2022-10-11T21:49:40.407Z,11.00
2022-10-11T21:52:10.181Z,10.40
2022-10-11T21:54:39.178Z,11.30
2022-10-11T21:57:08.469Z,11.10
2022-10-11T21:59:36.334Z,15.20
2022-10-11T22:02:05.979Z,80.20
2022-10-11T22:04:34.116Z,71.00
2022-10-11T22:07:01.940Z,68.00
2022-10-11T22:09:30.634Z,53.30
2022-10-11T22:11:59.138Z,42.70
2022-10-11T22:14:27.304Z,31.10
2022-10-11T22:16:55.750Z,27.00
2022-10-11T22:19:25.776Z,24.00
2022-10-11T22:21:54.175Z,20.90
2022-10-11T22:24:23.868Z,36.50
2022-10-11T22:26:52.747Z,31.20
2022-10-11T22:29:21.351Z,20.60
2022-10-11T22:31:49.607Z,29.50
2022-10-11T22:34:17.972Z,35.60
2022-10-11T22:36:45.815Z,29.50
2022-10-11T22:39:13.934Z,23.00
2022-10-11T22:41:41.827Z,20.50
2022-10-11T22:44:10.941Z,22.60
2022-10-11T22:46:41.897Z,22.30
2022-10-11T22:49:10.192Z,22.40
2022-10-11T22:51:38.607Z,23.50
2022-10-11T22:54:07.046Z,23.20
2022-10-11T22:56:35.049Z,21.70
2022-10-11T22:59:03.681Z,22.10
2022-10-11T23:01:33.045Z,22.50
2022-10-11T23:04:02.219Z,23.30
2022-10-11T23:06:30.592Z,24.10
2022-10-11T23:09:00.178Z,24.80
2022-10-11T23:11:30.795Z,24.00
2022-10-11T23:13:58.525Z,20.30
2022-10-11T23:16:26.352Z,21.60
2022-10-11T23:18:55.400Z,18.50
2022-10-11T23:21:24.434Z,18.60
2022-10-11T23:23:53.802Z,17.70
2022-10-11T23:26:25.797Z,16.60
2022-10-11T23:28:55.527Z,19.50
2022-10-11T23:31:23.904Z,20.00
2022-10-11T23:33:53.829Z,22.80
2022-10-11T23:36:25.590Z,24.90
2022-10-11T23:38:57.970Z,23.00
2022-10-11T23:41:28.422Z,17.30
2022-10-11T23:43:58.056Z,16.70
2022-10-11T23:46:27.052Z,28.10
2022-10-11T23:48:58.271Z,32.80
2022-10-11T23:51:26.702Z,25.90
2022-10-11T23:53:55.600Z,25.80
2022-10-11T23:56:24.248Z,24.30
2022-10-11T23:58:52.215Z,25.50
